Date,TemperatureHighF,TemperatureAvgF,TemperatureLowF,DewpointHighF,DewpointAvgF,DewpointLowF,HumidityHigh,HumidityAvg,HumidityLow,PressureMaxIn,PressureMinIn,WindSpeedMaxMPH,WindSpeedAvgMPH,GustSpeedMaxMPH,PrecipitationSumIn
2014-1-1,59.4,49.6,41.5,52.5,45.8,37.1,98,87,71,30.07,29.80,6,2,6,0.09
2014-1-2,55.9,48.2,32.2,55.7,39.3,20.8,99,73,46,30.13,29.73,17,5,17,0.09
2014-1-3,55.4,35.1,25.3,21.5,15.6,7.7,72,48,19,30.21,30.03,10,2,10,0.00
2014-1-4,60.4,43.6,25.2,47.6,31.4,12.8,99,63,42,30.04,29.78,7,2,11,0.00
2014-1-5,67.5,50.4,30.4,58.3,46.5,23.3,99,87,64,29.96,29.56,11,3,16,0.17
2014-1-6,32.2,25.7,19.4,23.4,5.3,-8.1,75,44,20,30.37,29.96,11,4,17,0.00
2014-1-7,42.6,26.0,15.6,10.2,3.8,-3.5,62,41,21,30.42,30.24,3,1,6,0.00
2014-1-8,58.8,37.0,18.7,27.6,16.3,4.3,72,47,19,30.26,30.08,6,1,9,0.00
2014-1-9,73.0,51.6,37.4,46.5,33.7,20.8,88,53,25,30.10,29.96,6,1,11,0.00
2014-1-10,66.6,55.2,43.3,65.0,53.1,42.0,99,93,74,29.96,29.57,12,2,15,0.12
2014-1-11,70.3,61.6,41.4,66.7,45.1,24.3,99,62,20,29.86,29.55,10,2,15,0.91
2014-1-12,72.9,53.4,34.0,47.4,33.2,27.0,95,53,19,29.97,29.77,8,2,13,0.00
2014-1-13,62.8,56.1,50.0,61.9,52.8,38.9,99,89,62,29.82,29.58,6,1,10,0.31
2014-1-14,72.3,53.6,41.5,40.1,34.0,25.3,78,52,19,29.86,29.75,5,1,9,0.00
2014-1-15,53.8,44.6,29.8,36.7,23.2,12.0,88,48,20,30.01,29.84,11,3,16,0.00
2014-1-16,66.0,45.3,27.5,39.1,26.6,18.7,80,53,20,29.96,29.79,10,1,14,0.00
2014-1-17,56.7,45.2,31.8,41.0,23.3,7.1,90,49,18,30.02,29.83,12,2,19,0.00
2014-1-18,66.7,45.3,25.2,30.8,20.2,12.4,76,41,16,30.05,29.85,8,1,14,0.00
2014-1-19,70.5,50.9,38.3,45.8,32.7,20.4,98,57,17,30.01,29.84,8,1,11,0.00
2014-1-20,77.0,52.3,33.3,47.2,34.2,25.9,83,56,19,29.90,29.71,4,1,7,0.00
2014-1-21,58.6,47.8,28.8,56.9,26.3,12.0,94,47,19,29.99,29.70,12,4,18,0.00
2014-1-22,62.8,39.9,23.2,29.5,18.2,11.0,69,46,19,30.01,29.89,5,0,7,0.00
2014-1-23,49.8,38.2,25.5,30.1,23.4,18.3,95,58,31,30.39,29.95,8,2,13,0.00
2014-1-24,29.3,26.9,23.4,22.0,12.5,6.1,87,54,41,30.40,30.07,6,1,11,0.00
2014-1-25,63.0,39.4,21.9,30.7,23.4,14.6,94,58,21,30.07,29.78,4,1,9,0.01
2014-1-26,63.5,48.6,34.7,48.2,36.8,29.1,92,67,33,29.80,29.62,7,1,11,0.00
2014-1-27,59.7,50.5,34.7,57.5,38.5,6.2,99,68,27,29.91,29.62,9,3,13,0.02
2014-1-28,34.7,25.0,20.1,20.2,13.6,4.1,84,64,29,30.15,29.89,9,4,14,0.00
2014-1-29,35.6,24.3,17.6,10.0,3.1,-1.6,67,41,22,30.24,30.10,8,2,10,0.01
2014-1-30,58.8,34.3,15.6,28.4,15.1,3.6,82,50,21,30.09,29.86,7,1,9,0.00
2014-1-31,70.5,47.7,29.8,48.1,39.6,27.1,95,76,42,29.92,29.79,5,1,8,0.00
2014-2-1,73.8,58.9,44.8,61.1,53.1,44.0,99,83,56,29.81,29.74,7,2,11,0.00
2014-2-2,69.3,60.7,38.5,68.5,60.1,38.0,99,98,86,29.79,29.60,9,2,17,0.45
2014-2-3,41.4,38.1,34.3,40.0,37.2,33.8,99,96,88,29.95,29.78,8,2,11,0.06
2014-2-4,66.9,48.8,39.2,66.7,48.4,38.9,99,99,97,29.85,29.52,10,2,14,1.04
2014-2-5,46.2,39.1,29.7,42.6,33.9,22.4,99,82,60,30.11,29.75,9,4,14,0.01
2014-2-6,39.9,31.3,27.7,28.6,23.6,21.8,84,73,61,30.22,30.07,9,2,11,0.00
2014-2-7,57.4,39.9,24.6,37.0,29.0,22.0,91,68,40,30.13,29.93,6,1,10,0.00
2014-2-8,69.8,47.2,33.8,44.8,38.9,31.5,99,76,39,30.02,29.87,5,1,7,0.00
2014-2-9,76.3,56.1,41.0,53.5,48.6,40.5,99,79,40,29.94,29.79,5,0,9,0.00
2014-2-10,53.4,45.6,38.7,52.7,44.7,38.2,99,97,89,29.91,29.82,5,1,8,0.32
2014-2-11,38.5,35.1,32.9,38.2,34.3,32.7,99,97,91,29.94,29.76,8,2,11,1.12
2014-2-12,36.7,33.6,31.3,35.9,33.2,31.0,99,98,96,29.81,29.67,8,3,11,0.19
2014-2-13,60.8,42.4,29.1,38.6,32.6,28.6,99,72,37,29.84,29.72,7,1,10,0.00
2014-2-14,68.0,51.1,32.2,54.8,42.2,30.0,99,74,40,29.75,29.57,11,2,19,0.00
2014-2-15,69.1,48.9,35.2,35.1,29.1,18.5,79,51,16,29.99,29.73,6,2,8,0.00
2014-2-16,78.6,58.2,36.3,53.9,45.2,31.6,93,65,35,29.93,29.83,8,1,11,0.00
2014-2-17,77.9,64.6,53.1,62.9,57.4,51.8,99,79,51,29.88,29.79,8,1,15,0.00
2014-2-18,77.7,66.8,60.1,65.3,60.7,56.4,99,83,51,29.92,29.79,7,1,11,0.00
2014-2-19,82.4,70.0,60.1,65.4,60.8,53.3,98,76,41,29.84,29.68,11,2,15,0.00
2014-2-20,84.9,70.4,57.4,65.8,62.9,56.7,99,80,42,29.70,29.56,16,4,21,3.61
2014-2-21,73.8,54.8,41.5,57.8,34.2,19.9,99,54,14,29.91,29.68,10,2,16,0.02
2014-2-22,70.0,54.3,38.8,40.8,36.6,29.0,96,57,23,29.92,29.76,5,1,8,0.00
2014-2-23,72.3,60.5,52.5,63.0,55.7,37.4,98,85,53,29.80,29.70,3,0,4,0.01
2014-2-24,80.8,64.3,53.1,60.8,51.6,43.8,99,67,34,29.93,29.78,4,1,8,0.00
2014-2-25,71.6,61.2,53.1,57.6,53.9,51.8,98,78,51,29.86,29.69,8,1,12,0.33
2014-2-26,53.1,42.4,32.7,52.5,35.6,22.0,99,78,55,29.87,29.65,8,4,13,0.26
2014-2-27,61.5,40.4,26.6,27.3,20.1,11.4,80,50,19,29.91,29.77,6,1,8,0.00
2014-2-28,67.3,50.1,30.4,45.4,32.2,21.3,84,55,22,29.84,29.72,9,2,15,0.00
2014-3-1,83.1,65.6,50.5,61.1,54.9,45.0,92,71,43,29.91,29.79,8,2,12,0.00
2014-3-2,79.5,67.8,60.4,64.2,61.3,58.1,94,81,55,29.92,29.67,9,3,14,0.00
2014-3-3,66.2,35.8,25.9,64.0,31.3,19.1,99,84,65,30.01,29.65,11,4,15,0.18
2014-3-4,33.3,30.1,26.2,32.5,27.3,20.3,99,89,78,29.99,29.85,6,1,10,0.01
2014-3-5,56.5,43.5,32.7,48.0,40.8,32.3,99,91,71,29.88,29.75,4,0,7,0.01
2014-3-6,48.6,43.9,40.1,48.0,43.4,39.8,99,98,96,29.81,29.72,6,2,11,0.18
2014-3-7,68.9,50.0,40.1,47.7,43.2,39.8,99,81,43,29.87,29.75,5,1,8,0.00
2014-3-8,75.6,57.8,42.6,52.3,47.7,42.3,99,73,41,29.94,29.80,8,1,10,0.00
2014-3-9,83.8,63.6,51.3,56.9,51.6,48.1,99,69,32,30.00,29.88,4,1,8,0.00
2014-3-10,84.2,65.7,47.8,59.3,52.7,47.6,99,68,37,29.93,29.71,5,1,8,0.00
2014-3-11,67.1,62.7,55.9,64.9,60.2,53.2,98,92,73,29.71,29.45,6,1,8,0.04
2014-3-12,66.2,58.7,45.1,61.9,47.3,29.4,99,70,35,29.94,29.47,10,3,20,0.00
2014-3-13,76.1,53.9,33.1,37.1,29.2,20.1,87,46,15,30.08,29.94,5,1,8,0.00
2014-3-14,74.3,56.7,37.2,51.3,41.5,34.0,95,61,30,30.01,29.86,11,2,15,0.00
2014-3-15,75.9,62.5,52.3,60.0,55.3,50.3,96,79,51,29.88,29.55,5,1,8,0.01
2014-3-16,81.0,66.8,49.3,66.5,58.0,43.5,99,76,40,29.57,29.35,11,3,15,0.48
2014-3-17,49.1,40.9,38.1,43.4,35.9,34.0,89,82,72,29.66,29.53,9,3,11,0.00
2014-3-18,74.5,52.8,37.8,47.4,40.3,34.5,92,68,32,29.74,29.60,11,2,17,0.00
2014-3-19,81.0,62.1,48.0,57.9,53.4,47.0,99,77,40,29.86,29.72,8,2,11,0.00
2014-3-20,80.8,63.0,50.0,55.1,40.9,30.5,79,49,19,29.95,29.82,5,1,8,0.00
2014-3-21,83.5,63.9,43.5,51.7,45.2,36.9,91,57,20,29.86,29.72,9,2,14,0.00
2014-3-22,87.1,70.4,55.9,62.7,56.5,50.7,91,64,37,29.84,29.71,4,1,8,0.00
2014-3-23,68.0,57.8,48.7,63.3,53.1,43.8,99,85,65,29.96,29.71,10,2,15,0.22
2014-3-24,71.2,56.2,46.4,46.1,40.8,36.8,91,60,30,29.95,29.73,6,1,9,0.00
2014-3-25,64.4,51.9,40.8,38.5,27.4,18.3,71,43,18,30.05,29.84,11,3,16,0.00
2014-3-26,66.9,49.4,34.7,35.0,26.7,20.8,74,45,21,30.14,29.93,6,2,11,0.00
2014-3-27,71.2,59.5,48.7,62.1,50.7,35.0,98,73,55,29.94,29.69,9,3,15,0.00
2014-3-28,79.9,66.2,59.2,67.6,62.8,57.2,99,89,65,29.75,29.57,9,3,17,1.28
2014-3-29,73.8,61.0,49.6,59.3,50.3,38.1,99,72,30,29.99,29.63,10,3,16,0.06
2014-3-30,81.5,58.6,42.1,44.3,39.1,30.2,99,57,18,30.05,29.89,4,1,8,0.00
2014-3-31,82.8,62.5,41.4,53.9,42.7,25.7,98,58,13,29.91,29.78,9,2,14,0.00
2014-4-1,83.8,68.2,58.1,62.0,58.5,53.5,95,74,41,29.90,29.79,8,2,14,0.00
2014-4-2,85.1,71.5,63.0,66.4,63.3,60.5,94,77,47,29.85,29.75,9,3,13,0.00
2014-4-3,84.7,74.4,68.2,67.7,65.2,61.3,94,75,49,29.77,29.64,12,4,17,0.00
2014-4-4,84.7,69.0,59.4,67.8,61.9,50.7,96,80,43,29.81,29.59,6,2,11,0.25
2014-4-5,77.4,63.7,54.9,53.0,44.8,37.8,81,53,26,29.86,29.72,4,1,8,0.01
2014-4-6,71.8,59.0,51.1,70.7,57.8,50.8,99,96,81,29.75,29.36,8,2,16,0.06
2014-4-7,73.4,63.1,52.9,70.1,56.0,48.5,99,80,48,29.69,29.35,9,2,12,0.91
2014-4-8,68.9,54.0,47.1,54.8,49.1,42.9,99,85,47,29.84,29.57,14,1,24,0.06
2014-4-9,77.5,58.9,43.5,45.6,40.4,30.4,98,59,21,30.01,29.83,6,1,8,0.00
2014-4-10,81.5,63.1,44.2,52.5,45.2,35.4,96,60,20,30.00,29.88,7,2,13,0.00
2014-4-11,82.8,63.1,50.7,61.4,53.3,48.8,97,74,38,29.98,29.87,7,1,10,0.00
2014-4-12,86.0,71.8,61.9,63.5,60.5,55.7,95,71,40,29.92,29.76,5,2,9,0.00
2014-4-13,84.6,72.2,63.1,67.0,62.1,58.4,92,73,43,29.79,29.63,8,3,14,0.00
2014-4-14,74.1,65.5,48.2,70.0,62.7,47.7,99,91,79,29.72,29.50,4,2,8,0.52
2014-4-15,62.1,50.6,39.7,47.6,30.7,22.3,99,51,24,29.98,29.73,9,2,14,0.00
2014-4-16,73.4,52.7,33.1,42.0,32.5,25.9,91,53,18,30.03,29.86,5,1,8,0.00
2014-4-17,69.8,57.3,42.8,56.5,50.1,40.4,98,78,51,29.99,29.90,4,1,8,0.00
2014-4-18,81.9,65.8,56.1,61.7,55.5,52.9,93,72,41,29.94,29.82,6,1,9,0.00
2014-4-19,85.8,67.4,51.3,55.1,51.3,46.5,97,63,29,29.95,29.83,5,1,7,0.00
2014-4-20,90.9,70.8,53.6,59.4,52.0,44.8,90,57,23,29.97,29.83,5,1,8,0.00
2014-4-21,89.1,72.0,60.8,62.9,58.6,54.0,94,67,35,29.90,29.74,4,1,8,0.00
2014-4-22,80.4,67.8,59.9,66.7,61.5,58.7,98,82,54,29.76,29.65,4,1,7,0.00
2014-4-23,93.9,73.7,59.4,62.5,53.8,41.9,98,59,19,29.77,29.64,3,0,6,0.00
2014-4-24,88.3,73.6,59.9,67.7,61.8,53.8,97,70,39,29.74,29.59,6,1,11,0.00
2014-4-25,92.5,76.1,61.9,67.0,57.1,46.2,96,58,26,29.77,29.65,4,1,8,0.00
2014-4-26,92.8,74.4,56.3,67.9,59.8,49.7,89,63,35,29.75,29.65,6,1,13,0.00
2014-4-27,90.7,78.1,70.3,71.3,69.0,63.6,94,76,43,29.67,29.47,8,3,20,0.00
2014-4-28,88.3,77.5,72.7,72.9,70.6,67.6,92,80,55,29.56,29.34,9,3,15,0.00
2014-4-29,90.0,73.9,62.2,72.8,65.7,57.2,99,78,47,29.57,29.42,6,1,13,0.00
2014-4-30,78.6,64.8,53.8,57.2,48.5,43.4,80,58,31,29.87,29.57,4,1,7,0.00
2014-5-1,80.4,62.9,46.2,47.1,42.0,32.1,92,53,21,29.90,29.76,4,0,6,0.00
2014-5-2,83.7,67.2,54.5,49.7,42.7,33.5,79,45,18,29.81,29.71,4,0,7,0.00
2014-5-3,90.0,69.6,50.0,54.7,46.7,39.4,83,51,18,29.87,29.77,7,1,8,0.00
2014-5-4,97.7,75.6,56.7,60.8,54.4,50.1,96,55,22,29.91,29.78,4,0,8,0.00
2014-5-5,94.1,75.4,56.3,57.2,52.3,45.8,88,50,21,29.84,29.71,7,1,10,0.00
2014-5-6,89.4,72.3,55.6,63.2,58.2,53.0,96,65,36,29.80,29.68,8,1,12,0.00
2014-5-7,92.5,75.7,62.2,66.3,62.5,58.4,94,67,36,29.83,29.71,8,2,12,0.00
2014-5-8,92.1,78.3,69.6,70.4,65.5,56.4,92,69,32,29.87,29.76,9,2,15,0.00
2014-5-9,74.5,68.1,63.7,71.9,66.1,61.4,99,94,80,29.88,29.73,8,1,13,0.09
2014-5-10,89.6,73.9,62.2,70.6,66.4,61.7,99,80,48,29.79,29.70,5,1,11,0.00
2014-5-11,91.6,76.8,71.6,73.8,70.4,65.0,95,83,43,29.81,29.72,10,2,14,0.05
2014-5-12,91.8,79.1,72.0,73.9,69.6,64.2,96,75,43,29.85,29.74,8,2,12,0.00
2014-5-13,93.0,79.4,70.9,70.9,66.9,60.3,96,70,37,29.86,29.74,5,1,8,0.00
2014-5-14,87.3,68.3,55.0,70.0,62.1,51.2,95,81,51,29.88,29.72,7,1,11,0.00
2014-5-15,77.4,60.5,46.6,51.8,44.7,38.6,95,61,30,29.98,29.88,4,1,8,0.00
2014-5-16,84.2,67.4,50.4,59.0,52.7,46.6,90,63,37,29.96,29.82,5,1,9,0.00
2014-5-17,90.9,73.0,55.9,63.1,56.8,53.9,96,61,32,29.93,29.82,5,1,9,0.00
2014-5-18,93.0,74.7,57.9,65.8,57.3,52.5,96,60,28,29.95,29.86,5,0,7,0.00
2014-5-19,91.8,75.6,57.9,69.7,58.7,50.1,97,62,26,29.95,29.87,5,1,11,0.00
2014-5-20,91.6,77.7,65.1,71.4,62.6,56.3,99,65,32,29.96,29.87,7,2,11,0.00
2014-5-21,95.0,80.3,68.7,70.1,64.4,59.3,96,63,32,29.98,29.87,5,1,9,0.00
2014-5-22,96.6,76.6,64.8,73.8,65.1,61.0,97,72,33,29.99,29.87,4,0,5,0.00
2014-5-23,96.3,79.6,65.7,71.7,64.1,61.4,94,62,35,29.93,29.80,6,1,6,0.00
2014-5-24,72.1,69.2,66.2,65.7,64.1,62.9,90,84,79,29.85,29.83,2,0,2,0.00
2014-5-25,95.0,80.2,64.9,76.9,64.4,60.5,97,64,35,29.89,29.79,4,1,4,0.00
2014-5-26,93.6,79.7,66.0,72.0,65.2,61.4,96,65,38,29.92,29.82,8,2,8,0.00
2014-5-27,90.5,73.6,69.6,74.2,69.7,63.5,95,89,43,29.85,29.71,8,1,8,0.01
2014-5-28,72.7,70.0,65.8,71.0,68.8,65.6,99,96,91,29.74,29.63,11,3,11,0.12
2014-5-29,82.4,71.6,69.1,71.8,69.4,67.8,98,93,65,29.66,29.58,8,3,9,0.01
2014-5-30,85.5,74.6,70.7,73.2,71.0,69.2,98,89,64,29.71,29.61,13,3,13,0.04
2014-5-31,81.5,72.7,69.6,74.0,70.2,68.3,97,92,72,29.77,29.68,8,2,8,0.00
2014-6-1,90.7,74.0,68.4,75.5,70.1,67.6,99,88,54,29.81,29.73,12,2,12,0.02
2014-6-2,91.2,77.0,72.1,77.9,71.8,68.5,98,85,50,29.86,29.78,11,2,11,0.00
2014-6-3,92.8,76.2,70.3,74.5,70.9,67.3,99,86,45,29.85,29.75,8,1,8,0.04
2014-6-4,96.8,79.8,70.9,75.1,70.5,67.1,99,76,41,29.77,29.64,8,2,8,0.00
2014-6-5,95.2,81.2,71.2,77.1,71.4,67.6,97,75,44,29.72,29.64,8,2,8,0.00
2014-6-6,100.0,84.6,73.0,81.3,71.7,67.5,98,69,39,29.76,29.66,6,1,6,0.00
2014-6-7,99.3,84.7,73.6,75.1,72.6,69.1,97,70,40,29.77,29.65,5,1,5,0.00
2014-6-8,98.8,85.2,74.1,76.8,71.7,67.3,96,68,38,29.76,29.61,8,2,8,0.00
2014-6-9,95.4,81.0,69.6,75.2,70.7,66.3,95,74,42,29.69,29.58,15,3,15,0.00
2014-6-10,81.9,73.1,67.6,74.3,70.6,66.3,99,92,71,29.70,29.52,11,2,11,0.07
2014-6-11,91.8,78.3,66.0,76.6,65.8,61.6,99,70,38,29.67,29.58,5,1,8,0.00
2014-6-12,97.0,81.1,66.9,74.6,68.6,65.6,97,69,39,29.73,29.62,6,1,6,0.00
2014-6-13,88.2,75.6,66.0,74.2,70.1,64.4,99,84,56,29.76,29.64,8,2,8,0.01
2014-6-14,100.2,81.4,66.4,79.1,68.0,64.0,99,69,35,29.78,29.70,5,1,5,0.00
2014-6-15,96.4,81.0,68.9,74.6,69.4,66.9,97,71,42,29.83,29.71,10,3,10,0.00
2014-6-16,95.9,80.2,70.7,75.1,71.5,67.7,97,77,43,29.94,29.82,8,2,8,0.00
2014-6-17,100.0,82.8,72.1,77.2,70.6,65.8,98,71,37,29.93,29.81,8,2,8,0.00
2014-6-18,99.3,84.2,70.5,81.2,69.8,65.7,97,66,38,29.90,29.80,10,1,10,0.00
2014-6-19,99.0,87.2,72.7,77.1,69.8,65.2,94,60,35,29.92,29.81,7,1,7,0.00
2014-6-20,101.8,82.7,73.0,74.4,71.2,67.5,91,71,38,29.89,29.78,7,1,7,0.00
2014-6-21,99.5,81.0,72.1,80.5,72.0,67.9,98,78,40,29.82,29.69,6,1,6,0.00
2014-6-22,97.5,77.9,72.0,81.5,72.6,66.5,99,86,44,29.75,29.67,8,1,8,0.07
2014-6-23,96.3,80.6,72.3,79.1,73.0,68.6,99,81,44,29.78,29.68,8,1,8,0.00
2014-7-2,100.2,85.2,72.7,76.8,72.4,68.8,94,69,39,29.86,29.72,4,2,4,0.00
2014-7-3,99.1,82.7,69.3,72.4,69.8,67.4,97,69,38,29.89,29.75,4,1,4,0.00
2014-7-4,93.7,80.0,67.1,69.3,63.7,60.2,89,61,36,29.98,29.89,4,1,4,0.00
2014-7-5,95.4,79.3,62.8,69.0,62.9,59.2,96,63,32,29.95,29.85,2,1,2,0.00
2014-7-6,97.5,82.0,64.4,71.0,65.0,62.7,95,62,32,29.87,29.76,4,1,4,0.00
2014-7-7,100.0,84.2,69.4,70.2,67.3,63.6,91,61,33,29.85,29.75,4,1,4,0.00
2014-7-8,98.1,79.0,71.6,75.9,71.4,67.5,95,79,40,29.87,29.76,8,2,10,0.00
2014-7-9,92.8,78.6,69.8,75.7,70.4,67.4,93,78,46,29.89,29.77,8,1,8,0.00
2014-7-10,101.1,81.6,71.6,76.4,71.4,68.1,95,75,39,29.90,29.77,5,1,5,0.00
2014-7-11,99.0,81.1,70.5,78.7,71.3,69.5,97,77,41,29.93,29.83,5,1,5,0.00
2014-7-12,98.4,82.5,70.5,75.0,72.2,69.4,97,75,42,29.92,29.83,4,1,4,0.00
2014-7-13,99.5,83.1,73.0,83.1,71.9,69.1,97,73,38,29.86,29.78,6,1,6,0.00
2014-7-14,100.0,83.5,71.6,75.3,72.2,69.7,94,72,39,29.83,29.70,4,1,4,0.00
2014-7-15,90.9,78.6,72.7,77.1,72.3,69.6,96,83,54,29.76,29.66,5,1,5,0.00
2014-7-16,92.1,78.1,66.9,71.2,62.1,53.3,92,62,29,29.79,29.70,4,1,4,0.00
2014-7-17,94.3,78.2,62.6,67.4,62.3,59.3,91,62,35,29.81,29.72,6,1,6,0.00
2014-7-18,80.2,74.6,69.6,75.1,71.0,66.8,99,89,72,29.78,29.66,9,2,9,0.01
2014-7-19,88.3,75.6,72.9,78.5,73.7,72.0,99,94,65,29.78,29.70,4,1,4,0.09
2014-7-20,92.5,78.5,71.8,77.8,72.4,70.8,99,83,52,29.81,29.72,5,1,5,0.00
2014-7-21,96.8,80.5,69.1,77.1,69.6,65.8,99,73,41,29.84,29.75,4,1,4,0.00
2014-7-22,96.3,79.7,70.3,74.6,70.4,67.8,96,76,44,29.83,29.75,5,1,5,0.00
2014-7-23,99.3,81.6,67.5,75.9,69.4,64.5,99,71,38,29.85,29.70,7,1,7,0.00
2014-7-24,99.3,82.4,71.8,77.5,71.7,68.1,96,73,39,29.80,29.70,4,1,4,0.00
2014-7-25,99.9,84.6,72.9,79.0,72.7,69.0,97,71,39,29.82,29.73,8,1,8,0.00
2014-7-26,102.7,86.3,74.8,78.0,74.0,70.2,97,70,39,29.85,29.75,6,1,6,0.00
2014-7-27,100.2,86.0,75.7,77.8,73.9,70.2,95,70,40,29.86,29.77,5,1,5,0.00
2014-7-28,96.6,83.7,75.9,79.7,75.2,70.6,94,77,49,29.86,29.73,7,2,7,0.00
2014-7-29,97.5,81.7,67.8,71.1,65.9,61.4,94,63,33,29.87,29.75,6,1,6,0.00
2014-7-30,94.8,77.6,62.1,64.6,60.8,55.6,92,61,31,29.88,29.78,5,1,5,0.00
2014-7-31,90.7,76.3,68.5,68.7,63.3,60.4,81,65,41,29.84,29.75,4,0,4,0.00
2014-8-1,80.8,73.2,70.7,73.4,68.6,63.8,94,86,73,29.81,29.72,4,1,4,0.00
2014-8-2,94.8,79.9,71.2,73.6,70.1,65.2,95,74,44,29.78,29.71,7,1,7,0.00
2014-8-3,100.8,82.8,73.2,75.5,71.1,66.0,94,72,36,29.80,29.70,7,1,7,0.00
2014-8-4,101.8,79.0,70.3,74.1,71.3,66.6,96,81,35,29.81,29.72,7,1,7,0.00
2014-8-5,102.2,84.4,70.2,80.5,71.2,67.9,98,69,38,29.85,29.76,5,1,5,0.00
2014-8-6,104.4,85.9,73.6,78.2,72.4,68.2,96,68,34,29.84,29.73,10,1,10,0.00
2014-8-7,101.7,86.0,74.5,76.2,72.7,68.6,94,68,38,29.80,29.67,7,1,7,0.00
2014-8-8,103.5,84.4,76.6,78.3,73.5,68.3,93,73,37,29.81,29.69,9,1,9,0.00
2014-8-9,102.6,82.6,73.6,79.8,73.9,69.8,98,79,40,29.81,29.72,9,1,9,0.00
2014-8-10,100.2,79.1,71.6,78.6,73.2,70.0,99,85,41,29.83,29.73,12,1,12,0.00
2014-8-11,97.9,77.6,72.0,76.8,72.8,71.1,99,88,45,29.83,29.74,6,0,6,0.00
2014-8-13,95.5,80.8,68.9,72.4,66.1,62.2,92,65,35,29.82,29.73,4,1,4,0.00
2014-8-14,95.9,78.8,63.7,66.2,63.0,60.5,93,63,32,29.85,29.73,4,1,4,0.00
2014-8-15,98.2,79.8,64.4,69.3,64.2,59.9,95,64,32,29.82,29.72,3,1,3,0.00
2014-8-16,101.7,82.9,69.3,73.2,70.1,66.8,92,69,38,29.81,29.73,3,1,3,0.00
2014-8-17,99.3,80.9,73.9,77.2,72.6,69.7,97,79,40,29.81,29.75,5,1,5,0.00
2014-8-18,98.1,83.4,72.1,78.4,71.9,69.3,97,72,40,29.79,29.69,5,2,5,0.00
2014-8-19,102.4,89.1,75.9,77.4,71.6,66.9,96,59,36,29.79,29.67,8,2,8,0.00
2014-8-20,104.5,84.9,73.6,76.4,71.7,67.4,94,69,33,29.86,29.72,9,1,9,0.00
2014-8-21,103.3,84.2,72.3,76.5,72.0,69.1,94,70,37,29.92,29.83,7,1,7,0.00
2014-8-22,103.5,86.2,73.4,77.3,72.4,68.1,96,68,35,29.91,29.77,4,1,4,0.00
2014-8-23,103.5,87.7,75.4,77.8,73.1,69.2,92,65,38,29.81,29.68,5,1,5,0.00
2014-8-24,102.7,87.1,75.2,75.1,72.0,68.6,92,64,37,29.75,29.63,5,1,5,0.00
2014-8-25,102.0,83.2,73.6,75.5,72.7,69.8,98,74,41,29.74,29.65,10,1,10,0.00
2014-8-26,98.4,82.0,69.8,73.0,67.8,62.1,98,68,32,29.81,29.71,7,1,7,0.00
2014-8-27,103.8,84.0,69.3,72.4,68.1,63.9,89,63,31,29.83,29.72,7,1,7,0.00
2014-8-28,100.4,82.5,72.3,79.0,72.0,67.3,96,73,38,29.80,29.68,5,1,5,0.00
2014-8-29,98.6,82.6,73.2,77.3,71.7,66.1,95,73,38,29.79,29.70,11,2,11,0.00
2014-8-30,90.3,75.9,72.5,77.7,73.6,70.9,98,93,61,29.84,29.75,11,2,11,0.00
2014-8-31,95.7,80.5,72.1,79.7,72.2,65.0,99,78,44,29.86,29.78,6,1,6,0.00
2014-9-1,97.2,81.3,73.4,80.4,74.0,67.9,98,81,42,29.85,29.75,13,3,13,0.00
2014-9-2,102.4,83.6,71.8,79.8,72.8,67.8,97,75,36,29.86,29.72,9,2,9,0.00
2014-9-3,98.2,75.7,70.9,75.1,71.1,69.1,98,88,43,29.85,29.74,9,0,9,0.00
2014-9-4,100.9,82.7,70.2,80.3,70.5,68.4,98,71,38,29.87,29.76,11,1,11,0.00
2014-9-5,97.2,80.2,71.6,76.8,71.9,68.6,96,78,45,29.92,29.78,7,1,7,0.00
2014-9-6,101.5,82.1,70.3,77.9,71.8,68.7,98,75,39,29.83,29.71,5,1,5,0.00
2014-9-7,99.7,82.5,73.6,76.2,72.9,69.5,97,76,41,29.78,29.67,5,1,5,0.00
2014-9-8,102.0,83.8,72.3,81.7,72.5,68.2,98,73,38,29.80,29.70,4,1,5,0.00
2014-9-9,101.7,85.2,73.4,77.0,72.9,69.4,96,71,39,29.81,29.67,6,1,6,0.00
2014-9-10,101.1,85.1,73.9,80.8,71.9,66.5,97,69,38,29.76,29.65,8,2,8,0.00
2014-9-11,99.7,83.3,74.7,79.5,74.3,71.0,96,76,42,29.78,29.68,7,1,7,0.00
2014-9-12,105.1,83.8,72.5,77.0,72.3,68.1,97,73,34,29.82,29.70,8,1,8,0.00
2014-9-13,77.2,72.4,67.8,73.3,68.8,65.3,96,89,75,29.91,29.74,4,2,4,0.00
2014-9-14,95.9,77.8,66.7,71.3,67.6,64.1,96,74,42,29.92,29.82,4,1,4,0.00
2014-9-15,101.1,83.5,70.5,74.6,70.8,66.9,95,69,38,29.90,29.79,4,1,4,0.00
2014-9-16,101.7,82.4,71.2,76.0,72.2,67.9,98,76,38,29.86,29.71,8,1,8,0.00
2014-9-17,96.3,79.0,70.7,74.0,70.8,67.1,98,80,42,29.78,29.65,5,1,5,0.00
2014-9-18,89.1,78.4,69.8,76.8,73.0,67.1,99,85,55,29.74,29.62,4,0,4,0.00
2014-9-19,99.0,79.8,68.4,77.1,69.2,63.6,99,75,38,29.77,29.66,7,1,7,0.00
2014-9-20,98.2,80.2,68.2,76.4,68.1,63.2,99,71,34,29.80,29.70,8,1,8,0.00
2014-9-21,99.3,80.4,65.8,74.3,65.9,60.6,99,67,30,29.83,29.73,8,1,8,0.00
2014-9-22,94.5,78.0,65.3,69.0,61.4,53.3,92,60,31,29.85,29.77,6,1,6,0.00
2014-9-23,93.7,72.9,55.4,58.3,53.9,47.7,89,57,23,29.91,29.81,6,1,6,0.00
2014-9-24,95.2,74.1,59.2,64.2,59.9,56.2,92,65,34,29.96,29.85,9,1,9,0.00
2014-9-25,92.5,74.3,60.4,63.6,60.7,57.2,94,67,33,29.95,29.85,8,1,8,0.00
2014-9-26,95.5,75.6,63.9,65.7,62.6,59.3,92,67,34,29.88,29.78,7,1,8,0.00
2014-9-27,92.3,75.0,63.1,68.5,64.5,61.4,95,73,39,29.82,29.73,8,1,8,0.00
2014-9-28,83.7,74.7,69.6,73.2,69.5,65.8,97,85,68,29.79,29.69,4,1,4,0.00
2014-9-29,94.5,76.9,70.5,74.2,70.8,67.6,98,83,45,29.73,29.62,7,1,7,0.00
2014-9-30,99.3,79.5,68.0,76.1,68.7,64.8,98,74,38,29.70,29.59,6,1,6,0.00
2014-10-1,92.5,78.8,71.6,75.3,71.1,67.9,98,80,47,29.73,29.63,9,3,9,0.00
2014-10-2,95.5,80.6,75.7,76.3,73.7,65.9,96,81,45,29.77,29.64,14,3,14,0.00
2014-10-3,86.4,72.3,62.6,75.9,66.0,57.7,99,82,48,29.83,29.65,13,2,13,0.00
2014-10-4,76.1,62.7,50.9,59.3,44.7,30.8,90,58,22,29.93,29.79,8,2,8,0.00
2014-10-5,83.5,65.4,47.8,56.2,47.8,37.4,96,60,21,29.83,29.71,11,2,11,0.00
2014-10-6,86.0,72.8,61.5,67.6,62.5,56.0,95,73,44,29.79,29.67,10,2,10,0.00
2014-10-7,95.5,77.2,67.5,75.5,67.5,63.4,99,76,40,29.83,29.71,6,1,6,0.00
2014-10-8,97.0,79.0,67.3,81.1,67.8,62.8,99,73,35,29.90,29.80,7,1,7,0.00
2014-10-9,95.9,78.6,70.5,74.8,70.5,67.0,98,79,41,29.87,28.82,6,2,6,0.00
2014-10-10,95.5,81.3,73.0,75.8,70.4,65.0,98,73,40,29.83,29.71,11,2,11,0.00
2014-10-11,95.5,78.5,70.9,75.0,69.7,63.6,98,78,40,29.82,29.71,5,1,5,0.00
2014-10-12,92.7,77.6,68.0,76.4,69.0,64.4,98,78,43,29.77,29.64,10,2,10,0.00
2014-10-13,89.2,78.2,73.2,74.7,72.0,69.7,95,83,55,29.70,29.47,20,6,20,0.00
2014-10-14,77.5,66.5,53.2,60.3,49.1,43.8,99,57,32,29.78,29.58,9,2,9,0.00
2014-10-15,79.7,62.1,48.2,53.2,45.9,36.8,96,62,23,29.82,29.72,9,1,9,0.00
2014-10-16,87.6,65.6,47.7,67.6,50.4,44.1,99,67,24,29.80,29.69,5,1,5,0.00
2014-10-17,89.4,69.7,53.1,72.7,58.7,52.5,99,73,39,29.80,29.68,10,1,10,0.00
2014-10-18,91.4,72.4,61.0,70.2,61.7,53.6,99,73,40,29.83,29.72,5,1,5,0.00
2014-10-19,83.1,64.2,51.4,54.4,50.4,44.5,94,66,29,29.92,29.81,7,1,7,0.00
2014-10-20,86.5,64.0,47.7,61.7,51.1,46.8,99,70,31,29.85,29.75,4,0,4,0.00
2014-10-21,88.7,67.7,51.1,59.1,53.9,49.6,96,67,30,29.86,29.74,6,1,6,0.00
2014-10-22,86.2,66.9,53.4,60.9,52.4,45.9,98,67,27,29.90,29.80,8,1,8,0.00
2014-10-23,81.5,61.2,46.8,51.4,47.4,39.5,95,67,24,29.92,29.81,6,1,6,0.00
2014-10-24,82.9,62.8,47.7,59.3,47.8,39.4,99,65,23,29.90,29.81,5,1,5,0.00
2014-10-25,88.2,67.5,49.6,58.7,52.9,46.1,91,65,31,29.93,29.81,4,1,4,0.00
2014-10-26,95.7,72.7,56.1,65.3,59.2,55.3,97,69,32,29.86,29.73,5,0,5,0.00
2014-10-27,88.9,71.7,55.9,72.5,60.2,55.2,99,72,38,29.82,29.73,10,2,10,0.00
2014-10-28,90.1,73.4,63.3,68.3,63.6,58.1,99,75,37,29.88,29.78,8,2,8,0.00
2014-10-29,85.5,70.0,57.0,71.1,62.6,47.1,99,79,53,29.88,29.79,5,1,5,0.00
2014-10-30,82.2,62.5,47.5,48.7,43.1,33.1,89,57,18,29.92,29.78,5,1,7,0.00
2014-10-31,78.1,60.1,47.7,49.1,45.7,34.1,92,63,33,30.00,29.78,9,2,9,0.00
2014-11-1,64.6,48.8,36.7,39.8,23.6,14.3,70,41,18,30.15,29.99,8,2,8,0.00
2014-11-2,74.1,50.8,33.1,36.3,30.2,21.1,81,52,14,30.23,30.08,4,1,4,0.00
2014-11-3,78.3,64.5,39.2,51.7,43.0,26.9,87,52,20,30.16,30.03,10,2,10,0.00
2014-11-4,83.1,64.1,52.5,58.4,54.5,51.6,98,75,42,30.03,29.91,11,3,11,0.00
2014-11-12,46.0,42.4,39.0,45.2,39.4,34.0,98,89,81,30.00,29.89,6,3,6,0.00
2014-11-13,38.8,36.0,34.7,34.1,30.1,27.0,83,79,72,30.09,29.98,8,3,8,0.00
2014-11-16,0.0,0.0,0.0,0.0,0.0,0.0,38,38,38,29.62,29.59,50,50,50,754.90
2014-11-17,50.9,30.3,0.0,37.5,20.4,-9.0,99,57,10,30.11,29.60,50,15,50,0.00
2014-11-18,52.9,36.7,27.5,23.9,17.4,7.3,82,50,20,30.27,30.11,7,2,7,0.00
2014-11-19,62.4,34.9,25.0,36.4,23.3,19.5,93,70,20,30.20,30.15,7,1,7,0.00
2014-11-20,76.5,63.5,0.0,49.2,38.5,-47.6,53,40,8,31.84,29.92,50,7,50,32.34
2014-12-4,77.4,68.0,61.7,65.1,61.9,59.2,97,82,61,29.96,29.91,6,1,6,0.00
2014-12-5,79.0,69.8,64.6,67.4,65.1,62.5,99,86,62,29.98,29.88,11,4,11,0.00
2014-12-6,82.8,65.2,50.5,71.3,60.5,48.0,99,86,53,30.09,29.93,11,3,11,0.00
2014-12-7,59.2,48.5,42.1,48.3,42.0,38.3,97,79,51,30.12,29.98,8,2,8,0.00
2014-12-8,71.4,52.9,40.3,47.7,42.7,39.1,99,73,36,30.05,29.95,5,1,5,0.00
2014-12-9,70.2,53.2,40.5,46.2,40.1,31.2,99,67,25,30.06,29.95,8,2,8,0.00
2014-12-10,63.1,45.7,32.7,40.5,34.7,29.8,99,70,30,30.09,29.94,7,1,7,0.00
2014-12-11,69.6,50.4,34.5,43.6,37.8,32.7,99,66,30,30.07,29.96,5,1,5,0.00
2014-12-12,59.7,51.8,46.6,46.9,43.1,40.2,93,73,52,30.15,30.04,4,1,4,0.00
2014-12-13,78.1,58.5,47.7,51.0,47.0,42.8,96,70,34,30.08,29.94,4,1,5,0.00
2014-12-14,79.2,58.2,42.3,51.4,47.8,42.0,99,73,36,29.96,29.81,7,1,7,0.00
2014-12-15,76.5,63.1,50.7,65.2,57.8,49.1,98,84,62,29.82,29.66,13,4,13,0.00
2014-12-16,64.8,53.4,40.6,61.7,37.8,31.6,98,58,30,30.04,29.79,9,2,11,0.00
2014-12-17,65.5,48.0,34.3,46.1,38.5,32.7,99,73,41,30.07,29.93,7,1,7,0.00
2014-12-18,63.0,50.0,42.6,50.5,45.9,40.0,99,87,52,29.95,29.86,7,1,7,0.00
2014-12-19,50.7,46.7,43.9,50.5,45.8,-9.0,99,97,10,29.93,29.83,8,2,8,0.00
2014-12-20,75.2,46.4,42.1,47.8,44.5,14.9,99,94,10,29.96,29.85,6,2,6,0.00
2014-12-21,64.6,50.2,38.7,51.4,46.1,38.4,99,87,59,29.93,29.69,6,1,6,0.00
2014-12-22,71.4,61.0,51.6,66.0,59.2,51.3,99,94,80,29.70,29.41,13,3,13,0.00
2014-12-23,69.3,62.2,46.9,68.1,61.7,46.7,99,98,91,29.48,29.24,14,2,14,0.24
2014-12-24,60.8,46.8,36.7,46.5,39.6,32.8,99,78,43,29.87,29.42,13,3,13,0.00
2014-12-25,64.8,46.2,30.9,49.0,35.2,30.7,99,70,30,30.02,29.86,9,2,9,0.00
2014-12-26,63.7,52.1,37.9,54.7,46.7,36.9,99,83,61,30.01,29.89,8,2,8,0.01
2014-12-27,67.5,61.0,55.0,67.2,60.5,54.2,99,98,92,29.93,29.78,10,3,10,0.28
2014-12-28,67.5,56.3,47.7,67.2,55.3,47.4,99,96,84,29.91,29.77,5,3,5,0.06
2014-12-29,53.8,49.8,46.6,51.9,49.0,46.3,99,97,88,29.96,29.82,5,1,5,0.01
2014-12-30,48.0,42.9,36.5,47.8,40.6,32.8,99,91,74,30.19,29.95,7,3,8,0.00
2014-12-31,63.0,43.5,30.9,33.8,30.7,-4.6,90,65,25,30.24,30.07,8,3,8,0.00
2015-1-1,50.4,43.3,34.7,44.9,38.3,30.4,88,83,73,30.14,29.92,9,2,9,0.00
2015-1-2,66.6,57.8,49.3,66.3,56.2,44.7,99,94,82,29.94,29.77,10,2,10,0.01